Humidity-temperature Sensor

Selected Measurement Type: Relative Humidity

 
Relative Humidity [%]     6 entries per hour
Showing data from 1/26/2023 (00:00:00 Z) to 1/19/2023 (00:01:00 Z)
Previous Next [ Day | 3-Days | 7-Days ]
First Last
Prev [ Day | 3-Days | 7-Days ] Next
First Last

Start Time:     :
End Time:     :     
Time (in GMT) :00 :50 :40 :30 :20 :10
Previous Next [ Day | 3-Days | 7-Days ]
First Last
Prev [ Day | 3-Days | 7-Days ] Next
First Last


123 => good data
MM => data is determined as missing
-- => data not received/configured
Back to Top Back to Top
1/26/2023 00:00 to 23:10 85.39 85.23 85.31 85.39 85.62 85.54
1/25/2023 23:00 to 22:10 85.27 85.44 85.89 85.35 85.27 85.85
1/25/2023 22:00 to 21:10 85.58 85.64 85.76 86.03 86.11 86.28
1/25/2023 21:00 to 20:10 85.97 85.99 85.81 85.72 85.50 85.64
1/25/2023 20:00 to 19:10 85.85 85.95 86.20 86.53 86.32 86.07
1/25/2023 19:00 to 18:10 85.81 86.01 85.83 85.85 85.70 85.44
1/25/2023 18:00 to 17:10 85.52 85.35 85.48 85.89 86.50 86.44
1/25/2023 17:00 to 16:10 86.59 86.57 86.96 86.85 86.50 86.28
1/25/2023 16:00 to 15:10 86.11 85.68 85.39 85.46 85.89 86.38
1/25/2023 15:00 to 14:10 87.29 87.55 87.92 87.86 87.70 87.59
1/25/2023 14:00 to 13:10 87.82 88.05 87.98 87.92 88.05 88.27
1/25/2023 13:00 to 12:10 88.44 88.54 88.52 88.56 88.70 88.85
1/25/2023 12:00 to 11:10 88.72 88.87 88.77 88.95 89.07 89.20
1/25/2023 11:00 to 10:10 89.40 89.48 89.55 89.48 89.65 89.69
1/25/2023 10:00 to 9:10 89.53 89.32 89.24 89.24 88.87 88.68
1/25/2023 09:00 to 8:10 88.70 88.68 88.42 88.42 88.17 88.07
1/25/2023 08:00 to 7:10 87.72 87.72 87.68 87.84 88.00 87.78
1/25/2023 07:00 to 6:10 87.76 87.88 88.07 88.19 88.00 87.68
1/25/2023 06:00 to 5:10 87.72 87.63 87.86 87.88 87.59 88.03
1/25/2023 05:00 to 4:10 88.11 88.44 88.44 88.48 88.79 89.05
1/25/2023 04:00 to 3:10 89.22 89.53 89.61 89.36 89.24 89.13
1/25/2023 03:00 to 2:10 88.66 88.56 88.46 88.62 88.46 88.64
1/25/2023 02:00 to 1:10 88.52 88.46 88.13 87.70 87.10 86.73
1/25/2023 01:00 to 0:10 86.75 87.20 87.14 87.04 86.87 86.65
1/25/2023 00:00 to 23:10 86.71 86.32 86.42 87.02 87.24 87.39
1/24/2023 23:00 to 22:10 87.53 86.98 86.40 85.99 85.39 85.11
1/24/2023 22:00 to 21:10 85.23 85.21 85.07 84.61 84.16 84.37
1/24/2023 21:00 to 20:10 84.63 84.63 85.37 85.60 85.91 86.38
1/24/2023 20:00 to 19:10 86.42 86.28 86.01 85.89 85.68 85.48
1/24/2023 19:00 to 18:10 85.44 85.44 85.89 86.09 85.87 85.85
1/24/2023 18:00 to 17:10 86.67 86.53 86.48 86.59 86.53 85.95
1/24/2023 17:00 to 16:10 85.50 85.31 85.03 84.78 85.03 85.44
1/24/2023 16:00 to 15:10 85.56 85.17 85.25 85.54 85.09 84.88
1/24/2023 15:00 to 14:10 84.70 85.07 84.92 85.19 85.64 86.03
1/24/2023 14:00 to 13:10 86.83 87.08 86.77 86.16 85.81 85.83
1/24/2023 13:00 to 12:10 85.68 85.60 85.95 86.38 86.22 86.24
1/24/2023 12:00 to 11:10 87.06 86.73 86.83 87.31 87.59 87.66
1/24/2023 11:00 to 10:10 87.39 86.42 86.42 86.77 87.12 86.83
1/24/2023 10:00 to 9:10 86.05 85.58 86.13 86.69 87.00 86.92
1/24/2023 09:00 to 8:10 87.14 87.37 87.63 87.39 87.04 87.16
1/24/2023 08:00 to 7:10 87.63 87.00 87.20 87.22 87.76 87.86
1/24/2023 07:00 to 6:10 87.66 87.18 87.39 87.18 87.31 87.68
1/24/2023 06:00 to 5:10 87.72 87.68 87.80 87.57 87.10 86.83
1/24/2023 05:00 to 4:10 87.08 86.79 86.69 86.87 87.55 88.35
1/24/2023 04:00 to 3:10 88.87 88.93 89.38 89.42 89.38 89.57
1/24/2023 03:00 to 2:10 89.32 89.69 89.59 89.50 89.71 90.06
1/24/2023 02:00 to 1:10 89.87 89.67 89.42 89.63 89.67 89.65
1/24/2023 01:00 to 0:10 89.50 89.09 88.54 88.03 87.47 87.08
1/24/2023 00:00 to 23:10 86.71 87.31 87.43 87.29 87.00 86.83
1/23/2023 23:00 to 22:10 86.94 86.90 87.47 89.05 90.35 91.40
1/23/2023 22:00 to 21:10 91.52 91.74 91.77 92.09 92.46 92.63
1/23/2023 21:00 to 20:10 92.83 92.09 90.10 89.48 89.50 89.81
1/23/2023 20:00 to 19:10 89.44 89.20 89.48 90.22 90.63 91.31
1/23/2023 19:00 to 18:10 91.97 92.59 92.90 92.85 92.85 93.49
1/23/2023 18:00 to 17:10 94.33 94.56 94.87 95.01 94.91 94.48
1/23/2023 17:00 to 16:10 94.07 94.00 93.18 91.56 90.88 90.59
1/23/2023 16:00 to 15:10 90.68 90.41 90.37 90.76 90.90 91.09
1/23/2023 15:00 to 14:10 91.17 91.31 91.23 91.31 91.05 91.09
1/23/2023 14:00 to 13:10 91.23 91.21 91.29 91.54 91.81 91.85
1/23/2023 13:00 to 12:10 92.01 91.79 91.60 91.31 91.05 91.15
1/23/2023 12:00 to 11:10 91.44 91.25 91.15 91.13 91.54 91.64
1/23/2023 11:00 to 10:10 91.60 92.16 92.20 92.50 93.14 93.43
1/23/2023 10:00 to 9:10 93.51 94.03 94.83 95.18 95.07 94.87
1/23/2023 09:00 to 8:10 94.58 94.31 93.88 93.29 92.44 92.40
1/23/2023 08:00 to 7:10 92.46 92.77 93.06 93.49 93.45 93.59
1/23/2023 07:00 to 6:10 93.49 93.31 93.29 93.27 93.22 93.22
1/23/2023 06:00 to 5:10 93.27 93.27 93.35 93.37 93.33 93.24
1/23/2023 05:00 to 4:10 93.08 92.98 92.85 92.75 92.81 92.87
1/23/2023 04:00 to 3:10 93.08 93.04 93.10 93.20 93.29 93.35
1/23/2023 03:00 to 2:10 93.41 93.35 93.35 93.22 93.18 93.08
1/23/2023 02:00 to 1:10 93.00 93.12 93.10 92.92 92.85 92.71
1/23/2023 01:00 to 0:10 92.69 92.77 92.71 92.50 92.65 92.53
1/23/2023 00:00 to 23:10 92.81 92.90 93.29 93.74 94.03 94.48
1/22/2023 23:00 to 22:10 94.35 94.46 94.44 94.89 95.32 95.61
1/22/2023 22:00 to 21:10 96.04 96.39 96.61 97.09 97.54 97.72
1/22/2023 21:00 to 20:10 97.93 98.20 98.16 98.07 98.24 98.18
1/22/2023 20:00 to 19:10 97.93 97.64 97.50 96.04 93.96 93.20
1/22/2023 19:00 to 18:10 92.90 92.61 92.46 91.99 91.83 91.46
1/22/2023 18:00 to 17:10 91.66 91.33 91.62 91.72 91.87 91.85
1/22/2023 17:00 to 16:10 92.07 92.53 93.08 93.61 94.37 94.85
1/22/2023 16:00 to 15:10 95.30 95.71 96.24 97.11 97.83 98.61
1/22/2023 15:00 to 14:10 98.92 99.45 99.92 100.17 100.44 100.42
1/22/2023 14:00 to 13:10 100.62 100.72 100.72 100.87 100.91 100.91
1/22/2023 13:00 to 12:10 100.91 100.93 100.91 100.89 100.89 100.91
1/22/2023 12:00 to 11:10 100.75 100.66 100.75 100.38 100.33 100.44
1/22/2023 11:00 to 10:10 100.68 100.66 100.70 100.81 100.81 100.83
1/22/2023 10:00 to 9:10 100.81 100.83 100.83 100.81 100.68 100.40
1/22/2023 09:00 to 8:10 100.38 100.17 100.01 99.80 99.57 99.39
1/22/2023 08:00 to 7:10 98.81 98.16 97.09 96.00 94.87 94.85
1/22/2023 07:00 to 6:10 95.05 95.22 95.38 95.53 95.67 95.79
1/22/2023 06:00 to 5:10 95.87 95.90 96.12 96.35 96.61 96.74
1/22/2023 05:00 to 4:10 96.90 97.09 97.23 97.35 97.48 97.72
1/22/2023 04:00 to 3:10 97.81 97.99 98.16 98.28 98.44 98.61
1/22/2023 03:00 to 2:10 98.73 98.92 99.00 99.14 99.24 99.45
1/22/2023 02:00 to 1:10 99.45 99.55 99.68 99.76 99.82 99.88
1/22/2023 01:00 to 0:10 100.03 100.07 100.25 100.21 100.40 100.31
1/22/2023 00:00 to 23:10 100.52 100.46 100.62 100.44 100.48 100.33
1/21/2023 23:00 to 22:10 100.25 100.21 100.15 100.13 100.01 99.90
1/21/2023 22:00 to 21:10 99.66 99.59 99.39 99.72 99.61 99.94
1/21/2023 21:00 to 20:10 99.70 99.74 99.68 99.51 99.41 99.27
1/21/2023 20:00 to 19:10 99.22 98.94 98.73 98.85 98.38 97.93
1/21/2023 19:00 to 18:10 97.38 96.57 95.40 93.86 90.88 88.87
1/21/2023 18:00 to 17:10 88.33 87.61 87.66 87.98 88.13 87.90
1/21/2023 17:00 to 16:10 87.59 87.90 88.27 88.81 88.93 89.32
1/21/2023 16:00 to 15:10 89.18 89.13 89.16 88.72 88.91 89.16
1/21/2023 15:00 to 14:10 89.22 89.44 90.41 90.92 90.96 91.23
1/21/2023 14:00 to 13:10 91.50 92.09 93.02 93.88 94.62 95.28
1/21/2023 13:00 to 12:10 95.79 96.06 95.81 95.61 95.73 95.59
1/21/2023 12:00 to 11:10 95.53 94.68 93.66 92.07 91.79 91.35
1/21/2023 11:00 to 10:10 90.86 90.86 91.09 91.11 91.07 90.70
1/21/2023 10:00 to 9:10 90.63 90.59 90.33 90.08 89.92 90.04
1/21/2023 09:00 to 8:10 90.27 90.45 90.35 90.27 90.37 90.45
1/21/2023 08:00 to 7:10 90.53 90.49 89.98 90.16 90.20 90.02
1/21/2023 07:00 to 6:10 89.98 89.65 89.63 89.53 89.63 89.53
1/21/2023 06:00 to 5:10 89.34 89.30 89.46 89.44 89.13 89.38
1/21/2023 05:00 to 4:10 89.46 89.67 89.46 89.26 88.99 89.30
1/21/2023 04:00 to 3:10 89.42 89.38 89.63 89.48 89.28 88.93
1/21/2023 03:00 to 2:10 88.60 88.54 88.46 88.58 88.54 88.35
1/21/2023 02:00 to 1:10 88.66 88.77 88.79 88.93 88.91 88.81
1/21/2023 01:00 to 0:10 88.56 88.52 88.33 88.48 88.11 87.82
1/21/2023 00:00 to 23:10 87.63 87.61 87.86 87.98 87.55 87.45
1/20/2023 23:00 to 22:10 87.41 86.96 86.59 86.11 86.30 85.93
1/20/2023 22:00 to 21:10 85.56 86.44 86.22 85.97 85.48 85.54
1/20/2023 21:00 to 20:10 85.74 85.39 85.62 85.85 85.39 85.50
1/20/2023 20:00 to 19:10 85.48 85.42 85.15 84.94 84.26 84.53
1/20/2023 19:00 to 18:10 84.90 84.63 84.02 83.24 83.59 83.50
1/20/2023 18:00 to 17:10 83.55 83.13 82.33 82.31 83.32 83.36
1/20/2023 17:00 to 16:10 83.36 83.24 82.39 83.07 82.52 82.89
1/20/2023 16:00 to 15:10 83.18 83.63 83.89 83.83 84.55 83.87
1/20/2023 15:00 to 14:10 84.57 84.72 85.09 85.46 84.47 83.83
1/20/2023 14:00 to 13:10 83.46 83.92 83.61 84.08 84.94 85.05
1/20/2023 13:00 to 12:10 85.11 85.62 85.56 85.42 85.46 85.99
1/20/2023 12:00 to 11:10 86.44 87.00 87.45 87.66 87.82 88.35
1/20/2023 11:00 to 10:10 88.87 88.23 87.49 87.45 87.22 87.08
1/20/2023 10:00 to 9:10 -- -- -- -- -- --
1/20/2023 09:00 to 8:10 -- -- -- -- -- --
1/20/2023 08:00 to 7:10 -- -- -- -- -- --
1/20/2023 07:00 to 6:10 -- -- -- -- -- --
1/20/2023 06:00 to 5:10 -- -- -- -- -- --
1/20/2023 05:00 to 4:10 -- -- -- -- -- --
1/20/2023 04:00 to 3:10 -- -- -- -- -- --
1/20/2023 03:00 to 2:10 -- -- -- -- -- --
1/20/2023 02:00 to 1:10 88.07 87.96 87.98 88.09 88.58 88.93
1/20/2023 01:00 to 0:10 88.95 88.64 88.46 88.68 88.91 89.34
1/20/2023 00:00 to 23:10 90.41 91.44 91.58 91.60 91.64 91.83
1/19/2023 23:00 to 22:10 92.09 92.28 92.77 93.06 93.10 92.83
1/19/2023 22:00 to 21:10 92.57 92.55 91.19 88.68 85.27 85.19
1/19/2023 21:00 to 20:10 85.19 85.29 85.44 85.68 85.87 85.91
1/19/2023 20:00 to 19:10 85.79 85.58 85.09 85.00 85.19 85.87
1/19/2023 19:00 to 18:10 86.77 87.49 88.09 88.79 89.18 89.44
1/19/2023 18:00 to 17:10 89.38 89.28 89.32 89.59 89.57 89.94
1/19/2023 17:00 to 16:10 90.43 90.61 90.78 90.90 90.72 90.55
1/19/2023 16:00 to 15:10 90.24 90.02 89.92 89.77 89.71 89.65
1/19/2023 15:00 to 14:10 89.90 90.02 90.14 90.18 90.29 90.51
1/19/2023 14:00 to 13:10 90.72 91.29 91.93 92.28 92.71 92.92
1/19/2023 13:00 to 12:10 93.24 93.49 93.86 94.23 94.54 94.91
1/19/2023 12:00 to 11:10 95.38 95.96 96.39 96.82 97.23 97.31
1/19/2023 11:00 to 10:10 97.52 97.72 97.87 98.09 98.16 98.30
1/19/2023 10:00 to 9:10 98.59 98.63 98.71 98.69 98.79 98.71
1/19/2023 09:00 to 8:10 98.88 98.90 99.02 99.06 99.22 99.43
1/19/2023 08:00 to 7:10 99.59 99.76 99.68 99.94 100.09 100.03
1/19/2023 07:00 to 6:10 100.19 100.05 100.09 99.92 99.66 99.31
1/19/2023 06:00 to 5:10 98.88 98.61 98.09 97.48 96.68 95.53
1/19/2023 05:00 to 4:10 94.19 93.51 93.59 93.68 93.90 94.09
1/19/2023 04:00 to 3:10 94.37 94.29 94.72 94.89 95.05 95.51
1/19/2023 03:00 to 2:10 95.83 96.29 96.76 97.29 97.87 98.46
1/19/2023 02:00 to 1:10 98.88 99.22 99.47 99.64 99.76 99.86
1/19/2023 01:00 to 0:10 100.33 100.54 100.85 100.91 100.91 100.91